Time;durP1;ratioP1;P1;durP2;ratioP2;P2;SDS_P1;SDS_P2;PMS_P1;PMS_P2;Temp;Humidity;BMP_temperature;BMP_pressure;BME280_temperature;BME280_humidity;BME280_pressure;Samples;Min_cycle;Max_cycle;Signal;HPM_P1;HPM_P2
2022/04/17 00:01:48;;;;;;;3.47;2.42;;;;;;;;;;5055020;28;20580;-73
2022/04/17 00:04:15;;;;;;;5.17;4.03;;;;;;;;;;5055212;28;20184;-74
2022/04/17 00:06:41;;;;;;;5.00;3.22;;;;;;;;;;5054149;28;20778;-73
2022/04/17 00:09:08;;;;;;;4.05;3.30;;;;;;;;;;5055336;28;20193;-74
2022/04/17 00:11:35;;;;;;;7.60;3.25;;;;;;;;;;5053811;28;20211;-72
2022/04/17 00:14:01;;;;;;;5.55;3.30;;;;;;;;;;5055327;28;20176;-73
2022/04/17 00:16:27;;;;;;;5.95;3.20;;;;;;;;;;5055253;28;20200;-72
2022/04/17 00:18:53;;;;;;;4.88;3.55;;;;;;;;;;5055248;28;20613;-72
2022/04/17 00:21:20;;;;;;;4.70;4.20;;;;;;;;;;5054861;28;20278;-72
2022/04/17 00:23:46;;;;;;;4.05;3.10;;;;;;;;;;5055437;28;20409;-74
2022/04/17 00:26:12;;;;;;;5.43;3.47;;;;;;;;;;5055235;28;20241;-73
2022/04/17 00:28:39;;;;;;;11.00;4.50;;;;;;;;;;5055100;28;20410;-73
2022/04/17 00:31:05;;;;;;;4.65;3.40;;;;;;;;;;5054580;28;20458;-72
2022/04/17 00:33:31;;;;;;;5.45;3.60;;;;;;;;;;5055071;28;20523;-72
2022/04/17 00:35:57;;;;;;;3.55;3.25;;;;;;;;;;5054945;28;20181;-74
2022/04/17 00:38:23;;;;;;;9.48;4.00;;;;;;;;;;5054939;28;20521;-71
2022/04/17 00:40:50;;;;;;;3.50;2.83;;;;;;;;;;5054540;28;20262;-73
2022/04/17 00:43:25;;;;;;;4.13;3.10;;;;;;;;;;5055007;28;20651;-72
2022/04/17 00:45:51;;;;;;;4.90;3.15;;;;;;;;;;5054843;28;20571;-72
2022/04/17 00:48:17;;;;;;;3.65;2.75;;;;;;;;;;5054834;28;20175;-72
2022/04/17 00:50:43;;;;;;;5.27;3.20;;;;;;;;;;5054279;28;20182;-73
2022/04/17 00:53:09;;;;;;;4.32;3.00;;;;;;;;;;5054605;28;20484;-72
2022/04/17 00:55:36;;;;;;;7.50;3.50;;;;;;;;;;5054642;28;20560;-73
2022/04/17 00:58:02;;;;;;;6.22;3.90;;;;;;;;;;5054602;28;20416;-74
2022/04/17 01:00:28;;;;;;;5.75;3.45;;;;;;;;;;5054224;28;20233;-73
2022/04/17 01:02:55;;;;;;;4.20;3.27;;;;;;;;;;5054030;28;20203;-73
2022/04/17 01:05:21;;;;;;;4.95;3.50;;;;;;;;;;5054437;28;20767;-73
2022/04/17 01:07:47;;;;;;;7.82;3.20;;;;;;;;;;5054347;28;20269;-72
2022/04/17 01:10:13;;;;;;;5.75;3.50;;;;;;;;;;5052581;28;20199;-74
2022/04/17 01:12:39;;;;;;;3.28;2.88;;;;;;;;;;5054110;28;20635;-72
2022/04/17 01:15:06;;;;;;;4.93;3.10;;;;;;;;;;5054012;28;20175;-73
2022/04/17 01:17:32;;;;;;;4.85;3.10;;;;;;;;;;5054134;28;20592;-72
2022/04/17 01:19:58;;;;;;;5.13;2.87;;;;;;;;;;5054115;28;20320;-73
2022/04/17 01:22:25;;;;;;;4.55;3.20;;;;;;;;;;5053693;28;20475;-73
2022/04/17 01:27:36;;;;;;;3.67;2.88;;;;;;;;;;5053992;28;20231;-71
2022/04/17 01:30:03;;;;;;;5.22;3.55;;;;;;;;;;5052655;28;20239;-74
2022/04/17 01:32:29;;;;;;;4.55;2.97;;;;;;;;;;5053614;28;20281;-70
2022/04/17 01:34:55;;;;;;;7.95;3.70;;;;;;;;;;5054034;28;20175;-72
2022/04/17 01:37:21;;;;;;;4.17;3.30;;;;;;;;;;5053795;28;20174;-72
2022/04/17 01:39:47;;;;;;;3.20;2.67;;;;;;;;;;5053732;28;20743;-73
2022/04/17 01:42:13;;;;;;;4.60;3.30;;;;;;;;;;5053372;28;20223;-73
2022/04/17 01:44:40;;;;;;;2.50;2.30;;;;;;;;;;5052631;28;20205;-73
2022/04/17 01:47:06;;;;;;;5.10;3.20;;;;;;;;;;5053661;28;20174;-72
2022/04/17 01:49:32;;;;;;;6.60;3.17;;;;;;;;;;5053445;28;20181;-71
2022/04/17 01:51:58;;;;;;;4.03;2.65;;;;;;;;;;5053053;28;20632;-73
2022/04/17 01:54:25;;;;;;;3.00;2.75;;;;;;;;;;5053585;28;20635;-73
2022/04/17 01:56:51;;;;;;;3.58;3.17;;;;;;;;;;5053624;28;20541;-72
2022/04/17 01:59:18;;;;;;;3.03;2.70;;;;;;;;;;5053430;28;20175;-72
2022/04/17 02:01:44;;;;;;;3.85;2.65;;;;;;;;;;5052879;28;20202;-71
2022/04/17 02:04:11;;;;;;;6.43;2.90;;;;;;;;;;5053420;28;20179;-72
2022/04/17 02:06:40;;;;;;;3.85;3.38;;;;;;;;;;5053380;28;20665;-73
2022/04/17 02:09:11;;;;;;;6.43;2.80;;;;;;;;;;5053199;28;20197;-73
2022/04/17 02:11:38;;;;;;;2.90;2.70;;;;;;;;;;5052621;28;20210;-73
2022/04/17 02:14:04;;;;;;;4.43;2.75;;;;;;;;;;5051270;28;20698;-73
2022/04/17 02:16:30;;;;;;;4.60;3.00;;;;;;;;;;5053111;28;20264;-72
2022/04/17 02:18:57;;;;;;;3.45;2.72;;;;;;;;;;5053161;28;20276;-72
2022/04/17 02:21:23;;;;;;;3.58;3.20;;;;;;;;;;5052756;28;20414;-73
2022/04/17 02:23:49;;;;;;;3.50;3.17;;;;;;;;;;5053064;28;20631;-72
2022/04/17 02:26:19;;;;;;;2.95;2.65;;;;;;;;;;5053028;28;20415;-72
2022/04/17 02:28:46;;;;;;;3.30;3.00;;;;;;;;;;5053230;28;20601;-72
2022/04/17 02:31:12;;;;;;;9.25;3.40;;;;;;;;;;5052618;28;20211;-72
2022/04/17 02:33:38;;;;;;;3.53;3.20;;;;;;;;;;5052830;28;20178;-71
2022/04/17 02:36:05;;;;;;;4.22;3.20;;;;;;;;;;5052917;28;20168;-75
2022/04/17 02:38:31;;;;;;;5.82;3.00;;;;;;;;;;5052926;28;20181;-73
2022/04/17 02:40:57;;;;;;;4.75;3.08;;;;;;;;;;5052535;28;20205;-72
2022/04/17 02:43:23;;;;;;;4.20;2.90;;;;;;;;;;5053211;28;20201;-71
2022/04/17 02:45:53;;;;;;;8.50;3.30;;;;;;;;;;5052975;28;20646;-73
2022/04/17 02:48:19;;;;;;;3.05;2.72;;;;;;;;;;5053179;28;20772;-71
2022/04/17 02:50:46;;;;;;;5.18;3.75;;;;;;;;;;5052669;28;20168;-73
2022/04/17 02:53:12;;;;;;;6.25;3.05;;;;;;;;;;5052988;28;20182;-72
2022/04/17 02:55:38;;;;;;;3.60;3.23;;;;;;;;;;5052866;28;20573;-73
2022/04/17 02:58:04;;;;;;;4.78;3.38;;;;;;;;;;5051564;28;20407;-73
2022/04/17 03:00:31;;;;;;;3.42;3.13;;;;;;;;;;5052361;28;20179;-73
2022/04/17 03:05:42;;;;;;;4.30;3.47;;;;;;;;;;5052967;28;20320;-71
2022/04/17 03:08:15;;;;;;;3.53;2.90;;;;;;;;;;5052665;28;20178;-72
2022/04/17 03:10:43;;;;;;;3.95;2.90;;;;;;;;;;5052330;28;20193;-71
2022/04/17 03:13:09;;;;;;;4.50;3.28;;;;;;;;;;5052604;28;20209;-73
2022/04/17 03:15:37;;;;;;;4.68;3.05;;;;;;;;;;5052549;28;20178;-72
2022/04/17 03:18:04;;;;;;;3.58;2.97;;;;;;;;;;5052262;28;20178;-73
2022/04/17 03:20:30;;;;;;;4.13;3.35;;;;;;;;;;5052242;28;20539;-73
2022/04/17 03:22:56;;;;;;;3.78;3.40;;;;;;;;;;5052473;28;20619;-74
2022/04/17 03:25:22;;;;;;;4.93;3.20;;;;;;;;;;5053893;28;20269;-74
2022/04/17 03:27:48;;;;;;;4.05;3.65;;;;;;;;;;5056249;28;20418;-74
2022/04/17 03:30:15;;;;;;;4.30;3.90;;;;;;;;;;5055810;28;20175;-73
2022/04/17 03:32:51;;;;;;;5.82;3.60;;;;;;;;;;5056060;28;20242;-72
2022/04/17 03:35:18;;;;;;;3.28;2.97;;;;;;;;;;5056400;28;20166;-73
2022/04/17 03:37:44;;;;;;;4.88;3.08;;;;;;;;;;5056282;28;20174;-71
2022/04/17 03:40:11;;;;;;;4.72;3.35;;;;;;;;;;5054535;28;20694;-72
2022/04/17 03:42:37;;;;;;;5.10;3.28;;;;;;;;;;5055856;28;20232;-72
2022/04/17 03:45:06;;;;;;;4.20;3.13;;;;;;;;;;5056025;28;20620;-73
2022/04/17 03:47:35;;;;;;;3.60;3.03;;;;;;;;;;5055982;28;20662;-74
2022/04/17 03:50:03;;;;;;;5.78;3.67;;;;;;;;;;5055903;28;20178;-71
2022/04/17 03:52:38;;;;;;;4.68;3.70;;;;;;;;;;5054038;28;20221;-71
2022/04/17 03:55:04;;;;;;;10.20;4.05;;;;;;;;;;5055912;28;20669;-71
2022/04/17 03:57:30;;;;;;;3.97;3.53;;;;;;;;;;5054447;28;20645;-73
2022/04/17 03:59:56;;;;;;;3.90;3.47;;;;;;;;;;5055790;28;20295;-74
2022/04/17 04:02:22;;;;;;;4.70;3.60;;;;;;;;;;5055078;28;20436;-72
2022/04/17 04:04:48;;;;;;;4.00;3.60;;;;;;;;;;5055640;28;20428;-71
2022/04/17 04:07:14;;;;;;;4.17;3.30;;;;;;;;;;5055589;28;20972;-72
2022/04/17 04:09:40;;;;;;;4.20;3.30;;;;;;;;;;5055366;28;20433;-73
2022/04/17 04:12:06;;;;;;;5.40;3.70;;;;;;;;;;5054987;28;20479;-73
2022/04/17 04:14:32;;;;;;;4.35;3.85;;;;;;;;;;5055128;28;20416;-72
2022/04/17 04:16:59;;;;;;;4.67;3.50;;;;;;;;;;5055339;28;20635;-72
2022/04/17 04:19:25;;;;;;;6.03;3.78;;;;;;;;;;5055541;28;20420;-74
2022/04/17 04:21:51;;;;;;;4.00;3.60;;;;;;;;;;5053718;28;20285;-73
2022/04/17 04:24:19;;;;;;;5.90;4.15;;;;;;;;;;5055183;28;20769;-73
2022/04/17 04:28:32;;;;;;;4.20;3.90;;;;;;;;;;5055189;28;20182;-73
2022/04/17 04:29:32;;;;;;;6.78;2.60;;;;;;;;;;5055157;28;20203;-72
2022/04/17 04:31:58;;;;;;;6.25;3.30;;;;;;;;;;5054701;28;20713;-73
2022/04/17 04:34:24;;;;;;;4.20;3.38;;;;;;;;;;5055087;28;20260;-73
2022/04/17 04:36:50;;;;;;;9.82;3.70;;;;;;;;;;5054804;28;20583;-73
2022/04/17 04:39:15;;;;;;;3.10;2.73;;;;;;;;;;5054878;28;20213;-72
2022/04/17 04:41:41;;;;;;;5.33;3.70;;;;;;;;;;5054464;28;20740;-73
2022/04/17 04:44:07;;;;;;;4.13;3.70;;;;;;;;;;5055090;28;20862;-74
2022/04/17 04:46:33;;;;;;;9.40;3.97;;;;;;;;;;5054790;28;20218;-73
2022/04/17 04:51:44;;;;;;;4.78;2.85;;;;;;;;;;5054567;28;20509;-72
2022/04/17 04:54:10;;;;;;;4.15;3.75;;;;;;;;;;5053476;28;20516;-74
2022/04/17 04:56:36;;;;;;;5.73;3.43;;;;;;;;;;5054519;28;20187;-73
2022/04/17 04:59:03;;;;;;;8.77;4.00;;;;;;;;;;5054463;28;20405;-72
2022/04/17 05:01:29;;;;;;;5.50;4.40;;;;;;;;;;5054008;28;20185;-71
2022/04/17 05:03:55;;;;;;;3.67;3.03;;;;;;;;;;5054548;28;20193;-73
2022/04/17 05:06:21;;;;;;;4.33;3.80;;;;;;;;;;5054429;28;20413;-72
2022/04/17 05:08:47;;;;;;;3.83;3.20;;;;;;;;;;5054171;28;20835;-73
2022/04/17 05:11:13;;;;;;;7.45;3.42;;;;;;;;;;5053820;28;20464;-72
2022/04/17 05:13:39;;;;;;;4.93;4.05;;;;;;;;;;5053055;28;20243;-71
2022/04/17 05:16:06;;;;;;;5.03;4.05;;;;;;;;;;5054178;28;20170;-73
2022/04/17 05:18:32;;;;;;;5.13;3.20;;;;;;;;;;5054165;28;20180;-73
2022/04/17 05:20:58;;;;;;;3.90;3.53;;;;;;;;;;5053528;28;20593;-72
2022/04/17 05:23:29;;;;;;;7.22;3.70;;;;;;;;;;5054141;28;20167;-72
2022/04/17 05:25:57;;;;;;;3.92;3.25;;;;;;;;;;5054165;28;20528;-72
2022/04/17 05:28:23;;;;;;;4.68;3.33;;;;;;;;;;5054002;28;20245;-74
2022/04/17 05:30:49;;;;;;;4.20;3.13;;;;;;;;;;5053537;28;20174;-73
2022/04/17 05:33:19;;;;;;;9.70;3.55;;;;;;;;;;5053865;28;20174;-74
2022/04/17 05:35:45;;;;;;;4.35;3.20;;;;;;;;;;5053867;28;20277;-72
2022/04/17 05:38:11;;;;;;;6.45;3.45;;;;;;;;;;5052760;28;20174;-74
2022/04/17 05:40:44;;;;;;;4.10;3.40;;;;;;;;;;5053565;28;20178;-72
2022/04/17 05:43:10;;;;;;;3.60;2.90;;;;;;;;;;5052312;28;20697;-72
2022/04/17 05:45:39;;;;;;;3.13;2.83;;;;;;;;;;5053911;28;20317;-72
2022/04/17 05:48:06;;;;;;;4.75;2.95;;;;;;;;;;5053230;28;20178;-72
2022/04/17 05:50:33;;;;;;;2.70;2.50;;;;;;;;;;5052876;28;20178;-72
2022/04/17 05:52:59;;;;;;;3.03;2.58;;;;;;;;;;5053295;28;20295;-73
2022/04/17 05:55:25;;;;;;;3.88;3.00;;;;;;;;;;5053424;28;20174;-74
2022/04/17 05:57:51;;;;;;;3.35;2.55;;;;;;;;;;5053399;28;20657;-72
2022/04/17 06:00:17;;;;;;;5.03;2.70;;;;;;;;;;5053192;28;20183;-72
2022/04/17 06:02:46;;;;;;;3.00;2.70;;;;;;;;;;5053214;28;20513;-73
2022/04/17 06:05:13;;;;;;;3.22;2.72;;;;;;;;;;5053263;28;20174;-73
2022/04/17 06:07:40;;;;;;;3.60;2.70;;;;;;;;;;5053325;28;20593;-74
2022/04/17 06:10:07;;;;;;;3.08;2.40;;;;;;;;;;5053287;28;20188;-73
2022/04/17 06:12:34;;;;;;;3.67;2.40;;;;;;;;;;5052836;28;20214;-73
2022/04/17 06:15:00;;;;;;;5.70;2.13;;;;;;;;;;5053219;28;20197;-72
2022/04/17 06:17:26;;;;;;;2.97;2.13;;;;;;;;;;5052989;28;20634;-74
2022/04/17 06:19:52;;;;;;;2.25;2.05;;;;;;;;;;5051911;28;20659;-73
2022/04/17 06:22:18;;;;;;;3.87;2.40;;;;;;;;;;5034981;28;20208;-70
2022/04/17 06:24:44;;;;;;;2.45;2.25;;;;;;;;;;5053223;28;20781;-72
2022/04/17 06:27:10;;;;;;;3.45;3.00;;;;;;;;;;5053039;28;20260;-72
2022/04/17 06:29:36;;;;;;;4.85;3.10;;;;;;;;;;5052984;28;20188;-73
2022/04/17 06:32:02;;;;;;;2.38;2.17;;;;;;;;;;5052627;28;21236;-72
2022/04/17 06:34:28;;;;;;;3.58;1.95;;;;;;;;;;5053076;28;20204;-73
2022/04/17 06:36:54;;;;;;;2.53;2.20;;;;;;;;;;5035384;28;20284;-72
2022/04/17 06:39:20;;;;;;;2.80;1.87;;;;;;;;;;5053080;28;20416;-75
2022/04/17 06:41:46;;;;;;;2.40;1.80;;;;;;;;;;5052468;28;20445;-73
2022/04/17 06:44:13;;;;;;;3.63;2.05;;;;;;;;;;5052970;28;20413;-73
2022/04/17 06:46:39;;;;;;;2.20;1.95;;;;;;;;;;5052932;28;20213;-73
2022/04/17 06:49:07;;;;;;;3.67;2.13;;;;;;;;;;5052713;28;20181;-72
2022/04/17 06:51:33;;;;;;;5.20;2.60;;;;;;;;;;5052354;28;20229;-72
2022/04/17 06:53:59;;;;;;;3.33;2.27;;;;;;;;;;5051900;28;20179;-72
2022/04/17 06:56:24;;;;;;;2.53;2.13;;;;;;;;;;5053101;28;20410;-74
2022/04/17 06:58:51;;;;;;;3.47;2.30;;;;;;;;;;5052895;28;20410;-72
2022/04/17 07:01:17;;;;;;;3.83;2.20;;;;;;;;;;5055435;28;20422;-71
2022/04/17 07:03:44;;;;;;;4.35;2.70;;;;;;;;;;5056713;28;20249;-72
2022/04/17 07:06:10;;;;;;;2.35;2.13;;;;;;;;;;5056827;28;20194;-72
2022/04/17 07:08:36;;;;;;;4.93;2.28;;;;;;;;;;5055417;28;20556;-73
2022/04/17 07:11:02;;;;;;;6.15;2.13;;;;;;;;;;5056224;28;20180;-74
2022/04/17 07:13:28;;;;;;;2.40;2.20;;;;;;;;;;5056539;28;20181;-72
2022/04/17 07:15:54;;;;;;;3.07;2.40;;;;;;;;;;5056291;28;20183;-73
2022/04/17 07:18:20;;;;;;;3.50;2.97;;;;;;;;;;5055166;28;20421;-74
2022/04/17 07:20:46;;;;;;;2.70;2.17;;;;;;;;;;5056095;28;20403;-74
2022/04/17 07:23:12;;;;;;;4.05;2.17;;;;;;;;;;5056238;28;20223;-73
2022/04/17 07:25:38;;;;;;;2.95;2.15;;;;;;;;;;5054868;28;20185;-74
2022/04/17 07:28:04;;;;;;;3.60;2.40;;;;;;;;;;5056076;28;20191;-74
2022/04/17 07:30:32;;;;;;;3.70;2.50;;;;;;;;;;5055887;28;20446;-73
2022/04/17 07:32:59;;;;;;;3.17;2.13;;;;;;;;;;5056020;28;20214;-73
2022/04/17 07:35:26;;;;;;;3.53;2.85;;;;;;;;;;5056229;28;20226;-74
2022/04/17 07:37:52;;;;;;;2.83;2.50;;;;;;;;;;5056279;28;20541;-74
2022/04/17 07:40:21;;;;;;;4.53;2.40;;;;;;;;;;5056165;28;20189;-72
2022/04/17 07:42:47;;;;;;;2.95;1.90;;;;;;;;;;5055961;28;20268;-73
2022/04/17 07:45:14;;;;;;;3.40;2.10;;;;;;;;;;5056303;28;20178;-74
2022/04/17 07:47:40;;;;;;;4.72;3.13;;;;;;;;;;5056056;28;20273;-74
2022/04/17 07:50:07;;;;;;;4.80;2.35;;;;;;;;;;5055926;28;20184;-73
2022/04/17 07:52:36;;;;;;;2.85;2.20;;;;;;;;;;5055508;28;20202;-73
2022/04/17 07:55:05;;;;;;;3.00;2.30;;;;;;;;;;5055798;28;20168;-73
2022/04/17 07:57:55;;;;;;;3.00;1.95;;;;;;;;;;5055904;28;20177;-73
2022/04/17 08:00:21;;;;;;;5.97;2.70;;;;;;;;;;5055441;28;20247;-73
2022/04/17 08:02:53;;;;;;;3.78;2.10;;;;;;;;;;5038277;28;20213;-73
2022/04/17 08:05:19;;;;;;;2.97;1.90;;;;;;;;;;5055727;28;20177;-73
2022/04/17 08:07:45;;;;;;;2.83;1.98;;;;;;;;;;5055593;28;20273;-74
2022/04/17 08:10:11;;;;;;;3.13;2.37;;;;;;;;;;5055120;28;20319;-73
2022/04/17 08:12:37;;;;;;;2.30;2.00;;;;;;;;;;5053125;28;21003;-71
2022/04/17 08:15:03;;;;;;;2.20;2.00;;;;;;;;;;5055609;28;20408;-72
2022/04/17 08:17:29;;;;;;;3.35;2.15;;;;;;;;;;5055491;28;20415;-72
2022/04/17 08:19:55;;;;;;;2.90;2.20;;;;;;;;;;5055382;28;20630;-72
2022/04/17 08:22:21;;;;;;;2.60;2.33;;;;;;;;;;5054776;28;20436;-74
2022/04/17 08:24:47;;;;;;;2.70;1.50;;;;;;;;;;5054114;28;20426;-72
2022/04/17 08:27:13;;;;;;;4.43;1.80;;;;;;;;;;5055392;28;20419;-72
2022/04/17 08:29:39;;;;;;;1.70;1.60;;;;;;;;;;5055243;28;20749;-74
2022/04/17 08:32:05;;;;;;;2.23;1.90;;;;;;;;;;5054623;28;20567;-74
2022/04/17 08:34:31;;;;;;;3.73;1.83;;;;;;;;;;5054996;28;20420;-73
2022/04/17 08:36:57;;;;;;;2.70;1.83;;;;;;;;;;5055173;28;20420;-75
2022/04/17 08:39:23;;;;;;;2.77;1.73;;;;;;;;;;5055096;28;20380;-74
2022/04/17 08:41:50;;;;;;;2.93;1.97;;;;;;;;;;5054514;28;20449;-75
2022/04/17 08:44:16;;;;;;;2.70;2.40;;;;;;;;;;5055126;28;20776;-73
2022/04/17 08:46:42;;;;;;;2.23;1.83;;;;;;;;;;5053542;28;20892;-73
2022/04/17 08:49:11;;;;;;;2.17;1.67;;;;;;;;;;5054878;28;20444;-74
2022/04/17 08:51:38;;;;;;;3.90;1.50;;;;;;;;;;5053074;28;20438;-71
2022/04/17 08:54:06;;;;;;;1.90;1.53;;;;;;;;;;5054726;28;20405;-74
2022/04/17 08:56:31;;;;;;;2.23;2.03;;;;;;;;;;5054547;28;20782;-73
2022/04/17 08:58:58;;;;;;;2.07;1.67;;;;;;;;;;5054933;28;20421;-72
2022/04/17 09:01:24;;;;;;;2.40;1.83;;;;;;;;;;5054316;28;20498;-73
2022/04/17 09:03:50;;;;;;;2.40;1.73;;;;;;;;;;5053251;28;20420;-73
2022/04/17 09:06:20;;;;;;;1.77;1.63;;;;;;;;;;5054620;28;20417;-73
2022/04/17 09:08:59;;;;;;;1.83;1.60;;;;;;;;;;5054340;28;20430;-74
2022/04/17 09:11:26;;;;;;;3.40;1.87;;;;;;;;;;5053997;28;20830;-70
2022/04/17 09:13:54;;;;;;;1.63;1.50;;;;;;;;;;5054461;28;20390;-74
2022/04/17 09:16:26;;;;;;;2.30;1.90;;;;;;;;;;5053024;28;20486;-72
2022/04/17 09:18:52;;;;;;;2.57;1.70;;;;;;;;;;5054157;28;20412;-72
2022/04/17 09:21:32;;;;;;;2.50;1.70;;;;;;;;;;5053839;28;20821;-74
2022/04/17 09:24:14;;;;;;;2.23;1.63;;;;;;;;;;5054046;28;20416;-71
2022/04/17 09:26:48;;;;;;;2.97;1.90;;;;;;;;;;5053972;28;20416;-75
2022/04/17 09:29:41;;;;;;;3.27;1.70;;;;;;;;;;5052754;28;20412;-73
2022/04/17 09:32:07;;;;;;;2.00;1.83;;;;;;;;;;5053298;28;20510;-74
2022/04/17 09:34:47;;;;;;;2.27;1.30;;;;;;;;;;5052664;28;20478;-74
2022/04/17 09:37:20;;;;;;;4.00;1.90;;;;;;;;;;5052613;28;20383;-71
2022/04/17 09:39:46;;;;;;;2.03;1.60;;;;;;;;;;5053915;28;20404;-75
2022/04/17 09:42:13;;;;;;;1.20;1.10;;;;;;;;;;5053477;28;20839;-74
2022/04/17 09:44:39;;;;;;;2.40;1.63;;;;;;;;;;5053891;28;20448;-75
2022/04/17 09:47:12;;;;;;;3.83;1.53;;;;;;;;;;5053760;28;20372;-74
2022/04/17 09:49:51;;;;;;;2.00;1.50;;;;;;;;;;5053946;28;20401;-73
2022/04/17 09:52:17;;;;;;;2.43;1.50;;;;;;;;;;5053419;28;20460;-74
2022/04/17 09:54:44;;;;;;;1.83;1.43;;;;;;;;;;5053868;28;20401;-74
2022/04/17 09:57:12;;;;;;;3.30;1.57;;;;;;;;;;5053415;28;20405;-74
2022/04/17 09:59:38;;;;;;;2.10;1.90;;;;;;;;;;5053708;28;20744;-73
2022/04/17 10:02:07;;;;;;;2.03;1.70;;;;;;;;;;5053158;28;20424;-74
2022/04/17 10:04:36;;;;;;;3.40;1.33;;;;;;;;;;5053505;28;20431;-72
2022/04/17 10:07:04;;;;;;;2.20;1.90;;;;;;;;;;5053247;28;20499;-74
2022/04/17 10:09:30;;;;;;;3.97;2.20;;;;;;;;;;5053208;28;20486;-75
2022/04/17 10:12:00;;;;;;;3.00;1.70;;;;;;;;;;5053026;28;20475;-74
2022/04/17 10:14:27;;;;;;;2.50;1.73;;;;;;;;;;5053242;28;20419;-74
2022/04/17 10:16:54;;;;;;;3.17;1.93;;;;;;;;;;5053330;28;20420;-71
2022/04/17 10:19:21;;;;;;;3.03;1.57;;;;;;;;;;5053047;28;20412;-70
2022/04/17 10:21:47;;;;;;;2.63;1.73;;;;;;;;;;5052773;28;20455;-73
2022/04/17 10:24:14;;;;;;;2.07;1.53;;;;;;;;;;5053347;28;20778;-73
2022/04/17 10:26:47;;;;;;;2.07;1.80;;;;;;;;;;5053043;28;20550;-71
2022/04/17 10:29:25;;;;;;;1.90;1.73;;;;;;;;;;5051619;28;20909;-72
2022/04/17 10:32:06;;;;;;;5.00;1.67;;;;;;;;;;5052665;28;20463;-72
2022/04/17 10:34:35;;;;;;;2.00;1.30;;;;;;;;;;5052529;28;20397;-73
2022/04/17 10:37:08;;;;;;;3.50;1.73;;;;;;;;;;5053113;28;21095;-72
2022/04/17 10:39:37;;;;;;;1.90;1.70;;;;;;;;;;5053156;28;20947;-73
2022/04/17 10:42:07;;;;;;;2.03;1.57;;;;;;;;;;5052607;28;20437;-74
2022/04/17 10:44:37;;;;;;;2.67;2.03;;;;;;;;;;5051720;28;20781;-71
2022/04/17 10:47:05;;;;;;;3.13;1.77;;;;;;;;;;5052939;28;20778;-73
2022/04/17 10:49:32;;;;;;;2.40;1.30;;;;;;;;;;5052911;28;20512;-71
2022/04/17 10:51:59;;;;;;;2.67;1.93;;;;;;;;;;5052424;28;20461;-71
2022/04/17 10:54:25;;;;;;;2.10;1.70;;;;;;;;;;5052961;28;20408;-72
2022/04/17 10:56:54;;;;;;;2.13;1.50;;;;;;;;;;5053098;28;20462;-72
2022/04/17 10:59:21;;;;;;;1.60;1.50;;;;;;;;;;5053015;28;20400;-72
2022/04/17 11:01:52;;;;;;;2.03;1.73;;;;;;;;;;5052425;28;20440;-73
2022/04/17 11:04:18;;;;;;;2.97;1.70;;;;;;;;;;5053130;28;20418;-72
2022/04/17 11:06:45;;;;;;;3.00;1.70;;;;;;;;;;5052953;28;20491;-74
2022/04/17 11:09:12;;;;;;;3.73;1.97;;;;;;;;;;5052774;28;20428;-75
2022/04/17 11:11:43;;;;;;;2.27;1.90;;;;;;;;;;5052021;28;20852;-71
2022/04/17 11:14:11;;;;;;;3.83;1.67;;;;;;;;;;5052898;28;20428;-73
2022/04/17 11:16:50;;;;;;;4.00;1.87;;;;;;;;;;5052792;28;20521;-74
2022/04/17 11:19:17;;;;;;;2.03;1.30;;;;;;;;;;5052747;28;20764;-72
2022/04/17 11:21:45;;;;;;;1.83;1.40;;;;;;;;;;5052369;28;20831;-73
2022/04/17 11:24:11;;;;;;;4.73;1.53;;;;;;;;;;5052731;28;20405;-71
2022/04/17 11:26:55;;;;;;;3.17;1.83;;;;;;;;;;5052554;28;20885;-74
2022/04/17 11:29:37;;;;;;;1.73;1.40;;;;;;;;;;5052742;28;20443;-74
2022/04/17 11:32:25;;;;;;;2.67;1.80;;;;;;;;;;5051951;28;20468;-72
2022/04/17 11:34:54;;;;;;;1.53;1.37;;;;;;;;;;5052508;28;20405;-71
2022/04/17 11:37:21;;;;;;;4.80;2.37;;;;;;;;;;5052596;28;20400;-73
2022/04/17 11:39:47;;;;;;;1.10;1.00;;;;;;;;;;5052371;28;20491;-73
2022/04/17 11:42:13;;;;;;;1.90;1.13;;;;;;;;;;5051945;28;20424;-74
2022/04/17 11:44:43;;;;;;;6.50;1.63;;;;;;;;;;5052546;28;20408;-73
2022/04/17 11:47:13;;;;;;;1.93;1.40;;;;;;;;;;5052338;28;20420;-74
2022/04/17 11:49:40;;;;;;;2.07;1.30;;;;;;;;;;5056011;28;20499;-73
2022/04/17 11:52:24;;;;;;;1.60;1.30;;;;;;;;;;5055456;28;20546;-71
2022/04/17 11:54:50;;;;;;;2.03;1.50;;;;;;;;;;5056231;28;20424;-74
2022/04/17 11:57:20;;;;;;;1.53;1.30;;;;;;;;;;5056059;28;20412;-71
2022/04/17 11:59:47;;;;;;;3.53;1.30;;;;;;;;;;5055950;28;20405;-72
2022/04/17 12:02:14;;;;;;;1.30;1.20;;;;;;;;;;5053970;28;20473;-73
2022/04/17 12:04:42;;;;;;;2.07;1.57;;;;;;;;;;5054559;28;20935;-73
2022/04/17 12:07:08;;;;;;;2.70;1.20;;;;;;;;;;5055727;28;20818;-74
2022/04/17 12:09:34;;;;;;;0.97;0.87;;;;;;;;;;5054380;28;20432;-72
2022/04/17 12:12:00;;;;;;;3.90;2.40;;;;;;;;;;5055071;28;20514;-74
2022/04/17 12:14:32;;;;;;;3.63;1.50;;;;;;;;;;5055537;28;21204;-74
2022/04/17 12:16:58;;;;;;;1.50;1.30;;;;;;;;;;5055430;28;20409;-72
2022/04/17 12:19:25;;;;;;;1.70;1.20;;;;;;;;;;5055534;28;20408;-74
2022/04/17 12:21:52;;;;;;;1.27;1.00;;;;;;;;;;5054984;28;20864;-73
2022/04/17 12:24:18;;;;;;;1.80;1.50;;;;;;;;;;5055165;28;20748;-72
2022/04/17 12:26:45;;;;;;;1.77;1.40;;;;;;;;;;5055262;28;20424;-71
2022/04/17 12:29:11;;;;;;;2.20;1.07;;;;;;;;;;5055226;28;20877;-73
2022/04/17 12:31:37;;;;;;;1.57;1.00;;;;;;;;;;5054682;28;20875;-75
2022/04/17 12:34:10;;;;;;;1.20;1.10;;;;;;;;;;5055220;28;20772;-73
2022/04/17 12:36:42;;;;;;;2.27;1.30;;;;;;;;;;5055050;28;20412;-74
2022/04/17 12:39:08;;;;;;;1.60;0.90;;;;;;;;;;5055161;28;20408;-74
2022/04/17 12:41:42;;;;;;;1.57;0.87;;;;;;;;;;5054696;28;20519;-74
2022/04/17 12:44:09;;;;;;;1.30;1.13;;;;;;;;;;5054938;28;20421;-74
2022/04/17 12:46:44;;;;;;;1.47;1.00;;;;;;;;;;5054746;28;20416;-72
2022/04/17 12:49:15;;;;;;;3.20;1.43;;;;;;;;;;5054810;28;20754;-72
2022/04/17 12:51:53;;;;;;;1.70;1.00;;;;;;;;;;5054337;28;20456;-72
2022/04/17 12:54:19;;;;;;;2.20;1.43;;;;;;;;;;5054737;28;20401;-72
2022/04/17 12:56:47;;;;;;;1.83;1.10;;;;;;;;;;5054775;28;20431;-72
2022/04/17 12:59:13;;;;;;;3.17;0.90;;;;;;;;;;5054287;28;20966;-73
2022/04/17 13:01:47;;;;;;;1.93;1.20;;;;;;;;;;5052848;28;20585;-75
2022/04/17 13:04:19;;;;;;;2.13;1.50;;;;;;;;;;5054568;28;20409;-73
2022/04/17 13:06:46;;;;;;;3.50;1.23;;;;;;;;;;5054494;28;20413;-74
2022/04/17 13:09:13;;;;;;;1.80;1.10;;;;;;;;;;5054394;28;20436;-74
2022/04/17 13:11:50;;;;;;;3.97;1.23;;;;;;;;;;5054160;28;20492;-75
2022/04/17 13:14:16;;;;;;;1.80;1.20;;;;;;;;;;5054477;28;20404;-76
2022/04/17 13:16:52;;;;;;;2.17;0.97;;;;;;;;;;5054141;28;20785;-74
2022/04/17 13:19:22;;;;;;;1.70;1.20;;;;;;;;;;5054290;28;20422;-71
2022/04/17 13:21:51;;;;;;;1.50;1.10;;;;;;;;;;5053886;28;20432;-74
2022/04/17 13:24:21;;;;;;;1.37;0.80;;;;;;;;;;5054266;28;20405;-73
2022/04/17 13:26:47;;;;;;;3.03;0.87;;;;;;;;;;5052665;28;20475;-74
2022/04/17 13:29:14;;;;;;;1.10;1.00;;;;;;;;;;5054117;28;20757;-73
2022/04/17 13:31:41;;;;;;;2.40;1.40;;;;;;;;;;5053601;28;20896;-74
2022/04/17 13:34:07;;;;;;;2.97;1.50;;;;;;;;;;5053949;28;20443;-72
2022/04/17 13:36:33;;;;;;;2.33;1.40;;;;;;;;;;5053791;28;20404;-75
2022/04/17 13:38:59;;;;;;;3.07;1.27;;;;;;;;;;5053798;28;20824;-72
2022/04/17 13:41:26;;;;;;;1.57;1.17;;;;;;;;;;5052232;28;20429;-73
2022/04/17 13:43:52;;;;;;;1.63;1.50;;;;;;;;;;5053923;28;20419;-73
2022/04/17 13:46:18;;;;;;;1.47;1.00;;;;;;;;;;5053987;28;20412;-71
2022/04/17 13:48:44;;;;;;;2.33;1.50;;;;;;;;;;5052492;28;20421;-75
2022/04/17 13:51:11;;;;;;;2.30;1.10;;;;;;;;;;5053248;28;20538;-74
2022/04/17 13:53:37;;;;;;;1.20;1.07;;;;;;;;;;5053714;28;20427;-73
2022/04/17 13:56:03;;;;;;;1.23;1.00;;;;;;;;;;5053751;28;20401;-74
2022/04/17 13:58:29;;;;;;;1.80;0.97;;;;;;;;;;5053630;28;20759;-72
2022/04/17 14:00:56;;;;;;;0.90;0.80;;;;;;;;;;5053209;28;20909;-75
2022/04/17 14:03:23;;;;;;;1.23;1.10;;;;;;;;;;5053508;28;20413;-73
2022/04/17 14:05:49;;;;;;;2.33;1.30;;;;;;;;;;5053471;28;20405;-73
2022/04/17 14:08:16;;;;;;;1.27;1.10;;;;;;;;;;5053725;28;20819;-74
2022/04/17 14:10:42;;;;;;;3.17;1.07;;;;;;;;;;5052351;28;20441;-73
2022/04/17 14:13:09;;;;;;;0.93;0.70;;;;;;;;;;5053160;28;20472;-72
2022/04/17 14:15:35;;;;;;;1.60;0.90;;;;;;;;;;5053359;28;20463;-74
2022/04/17 14:18:01;;;;;;;1.50;1.20;;;;;;;;;;5053556;28;20412;-74
2022/04/17 14:20:28;;;;;;;1.73;1.63;;;;;;;;;;5052907;28;20810;-75
2022/04/17 14:22:54;;;;;;;1.20;1.10;;;;;;;;;;5053066;28;20486;-73
2022/04/17 14:25:20;;;;;;;1.20;1.00;;;;;;;;;;5053143;28;20416;-72
2022/04/17 14:27:46;;;;;;;2.30;1.07;;;;;;;;;;5053177;28;20431;-72
2022/04/17 14:30:12;;;;;;;1.10;0.90;;;;;;;;;;5052957;28;20408;-72
2022/04/17 14:32:38;;;;;;;1.27;0.87;;;;;;;;;;5052975;28;20526;-73
2022/04/17 14:35:05;;;;;;;1.53;1.10;;;;;;;;;;5052870;28;20998;-75
2022/04/17 14:37:31;;;;;;;1.87;0.90;;;;;;;;;;5051763;28;20415;-75
2022/04/17 14:39:57;;;;;;;2.10;1.00;;;;;;;;;;5051753;28;20413;-73
2022/04/17 14:42:23;;;;;;;1.03;0.90;;;;;;;;;;5052614;28;21002;-75
2022/04/17 14:44:49;;;;;;;1.83;0.97;;;;;;;;;;5053086;28;20413;-76
2022/04/17 14:47:15;;;;;;;2.63;1.00;;;;;;;;;;5052794;28;20417;-73
2022/04/17 14:49:42;;;;;;;4.00;1.00;;;;;;;;;;5052887;28;20487;-75
2022/04/17 14:52:09;;;;;;;2.10;1.33;;;;;;;;;;5052562;28;21045;-73
2022/04/17 14:54:36;;;;;;;1.53;1.20;;;;;;;;;;5053159;28;20404;-74